Time;durP1;ratioP1;P1;durP2;ratioP2;P2;SDS_P1;SDS_P2;PMS_P1;PMS_P2;Temp;Humidity;BMP_temperature;BMP_pressure;BME280_temperature;BME280_humidity;BME280_pressure;Samples;Min_cycle;Max_cycle;Signal;HPM_P1;HPM_P2
2023/03/18 00:00:00;;;;;;;12.50;8.27;;;;;;;11.06;100.00;100602.75;5290449;28;20038;-70
2023/03/18 00:02:31;;;;;;;12.18;8.30;;;;;;;11.10;100.00;100588.22;5288887;28;20023;-70
2023/03/18 00:05:04;;;;;;;13.52;8.30;;;;;;;10.97;100.00;100595.53;5295607;28;20028;-70
2023/03/18 00:07:36;;;;;;;12.75;8.38;;;;;;;11.01;100.00;100591.63;5286660;28;20027;-70
2023/03/18 00:10:09;;;;;;;13.32;8.43;;;;;;;10.96;100.00;100597.34;5282851;28;20046;-70
2023/03/18 00:12:41;;;;;;;11.63;8.07;;;;;;;10.92;100.00;100603.91;5275255;28;20025;-70
2023/03/18 00:15:15;;;;;;;17.55;8.80;;;;;;;10.94;100.00;100609.13;5276059;28;20146;-70
2023/03/18 00:17:47;;;;;;;14.63;8.68;;;;;;;10.96;100.00;100602.69;5274648;28;20025;-70
2023/03/18 00:20:27;;;;;;;10.30;7.47;;;;;;;10.98;100.00;100610.56;5274699;28;20628;-70
2023/03/18 00:22:59;;;;;;;11.50;7.97;;;;;;;10.98;100.00;100610.56;5272852;28;20028;-70
2023/03/18 00:25:30;;;;;;;14.00;8.18;;;;;;;10.93;100.00;100604.75;5276224;28;20020;-70
2023/03/18 00:28:03;;;;;;;15.63;8.48;;;;;;;10.89;100.00;100622.00;5274159;28;20063;-70
2023/03/18 00:30:37;;;;;;;13.45;8.15;;;;;;;10.82;100.00;100618.16;5274639;28;20123;-70
2023/03/18 00:33:09;;;;;;;11.68;7.45;;;;;;;10.80;100.00;100615.59;5275739;28;20111;-70
2023/03/18 00:35:41;;;;;;;12.48;7.95;;;;;;;10.98;100.00;100629.25;5274827;28;20031;-70
2023/03/18 00:38:19;;;;;;;15.77;8.60;;;;;;;10.87;100.00;100626.59;5273318;28;20085;-70
2023/03/18 00:40:52;;;;;;;12.85;8.20;;;;;;;10.82;100.00;100619.00;5275277;28;20154;-70
2023/03/18 00:43:28;;;;;;;14.80;7.65;;;;;;;10.78;100.00;100625.56;5277011;28;20139;-70
2023/03/18 00:45:59;;;;;;;14.00;8.20;;;;;;;10.73;100.00;100628.56;5277713;28;20067;-70
2023/03/18 00:48:31;;;;;;;15.95;8.27;;;;;;;10.78;100.00;100631.72;5277047;28;20035;-70
2023/03/18 00:51:02;;;;;;;12.63;7.88;;;;;;;10.87;100.00;100629.28;5276362;28;20024;-70
2023/03/18 00:53:34;;;;;;;14.77;8.30;;;;;;;10.74;100.00;100635.63;5274725;28;20086;-70
2023/03/18 00:56:05;;;;;;;14.68;8.25;;;;;;;10.83;100.00;100641.19;5273153;28;20028;-70
2023/03/18 00:58:37;;;;;;;15.68;8.30;;;;;;;10.90;100.00;100639.72;5271669;28;20520;-70
2023/03/18 01:01:11;;;;;;;12.80;7.68;;;;;;;10.86;100.00;100633.78;5273681;28;20111;-70
2023/03/18 01:03:43;;;;;;;15.35;8.10;;;;;;;10.95;100.00;100634.84;5275385;28;20024;-70
2023/03/18 01:06:22;;;;;;;12.73;8.60;;;;;;;10.85;100.00;100632.06;5274543;28;20518;-70
2023/03/18 01:08:54;;;;;;;15.30;7.93;;;;;;;10.84;100.00;100634.88;5277846;28;20546;-70
2023/03/18 01:11:27;;;;;;;16.38;8.52;;;;;;;10.96;100.00;100631.19;5288928;28;20064;-70
2023/03/18 01:13:59;;;;;;;15.77;8.18;;;;;;;10.93;100.00;100632.31;5281965;28;20059;-70
2023/03/18 01:16:30;;;;;;;18.50;8.82;;;;;;;10.84;100.00;100626.88;5280164;28;20123;-70
2023/03/18 01:19:03;;;;;;;15.95;8.25;;;;;;;10.89;100.00;100624.66;5280911;28;20034;-70
2023/03/18 01:21:34;;;;;;;14.07;8.45;;;;;;;10.97;100.00;100624.91;5272964;28;20057;-70
2023/03/18 01:24:06;;;;;;;18.42;8.63;;;;;;;10.86;100.00;100620.44;5292655;28;20077;-70
2023/03/18 01:26:37;;;;;;;15.43;8.85;;;;;;;10.86;100.00;100628.44;5289505;28;20665;-70
2023/03/18 01:29:09;;;;;;;22.42;10.00;;;;;;;10.83;100.00;100620.66;5285577;28;20054;-69
2023/03/18 01:31:40;;;;;;;19.15;10.25;;;;;;;10.88;100.00;100633.66;5296410;28;20027;-70
2023/03/18 01:34:13;;;;;;;18.85;10.05;;;;;;;10.89;100.00;100635.34;5288690;28;20016;-70
2023/03/18 01:36:45;;;;;;;17.50;11.02;;;;;;;10.82;100.00;100627.00;5273950;28;20517;-70
2023/03/18 01:39:16;;;;;;;22.98;11.40;;;;;;;10.73;100.00;100628.56;5275475;28;20502;-70
2023/03/18 01:41:48;;;;;;;20.55;12.45;;;;;;;10.70;100.00;100623.50;5274514;28;20020;-70
2023/03/18 01:44:22;;;;;;;19.25;10.88;;;;;;;10.65;100.00;100631.00;5272374;28;20453;-70
2023/03/18 01:46:54;;;;;;;22.77;12.65;;;;;;;10.63;100.00;100632.13;5275145;28;20023;-70
2023/03/18 01:49:38;;;;;;;21.63;12.52;;;;;;;10.59;100.00;100626.19;5275611;28;20032;-70
2023/03/18 01:52:15;;;;;;;21.85;12.40;;;;;;;10.58;100.00;100629.81;5268514;28;20040;-70
2023/03/18 01:55:11;;;;;;;20.95;13.32;;;;;;;10.59;100.00;100632.34;5291941;28;20029;-69
2023/03/18 01:57:44;;;;;;;18.52;13.27;;;;;;;10.48;100.00;100632.34;5274352;28;20119;-70
2023/03/18 02:00:16;;;;;;;19.92;12.63;;;;;;;10.56;100.00;100634.41;5275889;28;20028;-69
2023/03/18 02:02:49;;;;;;;19.50;13.05;;;;;;;10.47;100.00;100638.69;5272127;28;20502;-70
2023/03/18 02:05:26;;;;;;;22.05;14.15;;;;;;;10.44;100.00;100636.25;5279609;28;20024;-69
2023/03/18 02:07:57;;;;;;;23.85;13.60;;;;;;;10.38;100.00;100628.75;5275895;28;20063;-69
2023/03/18 02:10:31;;;;;;;20.85;14.38;;;;;;;10.40;100.00;100635.63;5279221;28;20032;-69
2023/03/18 02:13:09;;;;;;;24.75;14.75;;;;;;;10.51;100.00;100639.28;5286582;28;20040;-69
2023/03/18 02:15:48;;;;;;;21.20;13.95;;;;;;;10.37;100.00;100630.56;5278690;28;20141;-69
2023/03/18 02:18:29;;;;;;;21.00;14.35;;;;;;;10.40;100.00;100642.78;5274312;28;20024;-69
2023/03/18 02:21:23;;;;;;;23.30;14.10;;;;;;;10.45;100.00;100642.41;5278054;28;20608;-69
2023/03/18 02:24:22;;;;;;;24.73;14.60;;;;;;;10.45;100.00;100642.41;5277074;28;20485;-69
2023/03/18 02:27:24;;;;;;;27.45;15.38;;;;;;;10.36;100.00;100642.19;5278512;28;20059;-70
2023/03/18 02:30:02;;;;;;;21.95;14.50;;;;;;;10.31;100.00;100643.53;5275133;28;20082;-69
2023/03/18 02:32:34;;;;;;;26.88;15.18;;;;;;;10.27;100.00;100652.69;5279494;28;20461;-69
2023/03/18 02:35:10;;;;;;;26.83;17.02;;;;;;;10.29;100.00;100659.59;5278284;28;20094;-69
2023/03/18 02:37:41;;;;;;;22.30;15.35;;;;;;;10.29;100.00;100658.75;5279919;28;20123;-68
2023/03/18 02:40:24;;;;;;;21.00;15.52;;;;;;;10.26;100.00;100665.19;5286076;28;20036;-69
2023/03/18 02:42:56;;;;;;;26.75;15.70;;;;;;;10.20;100.00;100668.31;5275872;28;20028;-69
2023/03/18 02:45:44;;;;;;;27.33;16.75;;;;;;;10.25;100.00;100668.81;5277571;28;20024;-69
2023/03/18 02:48:19;;;;;;;24.27;16.70;;;;;;;10.19;100.00;100662.13;5278271;28;20030;-69
2023/03/18 02:50:52;;;;;;;25.77;17.00;;;;;;;10.19;100.00;100667.47;5278692;28;20028;-69
2023/03/18 02:53:25;;;;;;;26.73;17.02;;;;;;;10.18;100.00;100667.59;5276028;28;20025;-69
2023/03/18 02:55:56;;;;;;;28.42;17.40;;;;;;;10.24;100.00;100669.78;5282785;28;20485;-68
2023/03/18 02:58:28;;;;;;;26.25;16.77;;;;;;;10.19;100.00;100679.97;5282613;28;20030;-68
2023/03/18 03:01:00;;;;;;;27.30;17.00;;;;;;;10.28;100.00;100673.91;5279549;28;20044;-68
2023/03/18 03:03:31;;;;;;;24.60;16.77;;;;;;;10.23;100.00;100676.09;5283309;28;20024;-68
2023/03/18 03:06:03;;;;;;;24.65;16.88;;;;;;;10.19;100.00;100682.63;5283236;28;20094;-68
2023/03/18 03:08:34;;;;;;;28.75;17.55;;;;;;;10.14;100.00;100691.00;5287148;28;20025;-68
2023/03/18 03:11:07;;;;;;;28.08;18.17;;;;;;;10.19;100.00;100693.28;5285756;28;20393;-68
2023/03/18 03:13:40;;;;;;;22.98;16.38;;;;;;;10.11;100.00;100693.03;5282644;28;20137;-68
2023/03/18 03:16:14;;;;;;;29.02;17.83;;;;;;;10.19;100.00;100699.47;5279597;28;20039;-68
2023/03/18 03:18:46;;;;;;;24.60;16.88;;;;;;;10.16;100.00;100697.06;5278136;28;20113;-69
2023/03/18 03:21:17;;;;;;;24.95;17.92;;;;;;;10.15;100.00;100699.84;5282261;28;20036;-68
2023/03/18 03:23:49;;;;;;;25.58;17.15;;;;;;;10.13;100.00;100696.44;5281081;28;20119;-68
2023/03/18 03:26:21;;;;;;;26.80;17.88;;;;;;;10.25;100.00;100692.81;5282409;28;20033;-69
2023/03/18 03:28:52;;;;;;;26.33;17.88;;;;;;;10.26;100.00;100697.19;5283781;28;20038;-68
2023/03/18 03:31:24;;;;;;;25.52;17.73;;;;;;;10.10;100.00;100707.31;5282640;28;20035;-68
2023/03/18 03:33:56;;;;;;;26.08;17.73;;;;;;;10.07;100.00;100700.41;5278807;28;20040;-68
2023/03/18 03:36:27;;;;;;;27.25;17.33;;;;;;;10.15;100.00;100703.34;5283577;28;20059;-68
2023/03/18 03:38:59;;;;;;;27.55;18.25;;;;;;;10.24;100.00;100706.25;5281154;28;20033;-68
2023/03/18 03:41:30;;;;;;;28.27;18.17;;;;;;;10.09;100.00;100701.16;5281891;28;20028;-68
2023/03/18 03:44:02;;;;;;;29.83;19.50;;;;;;;10.16;100.00;100698.84;5284123;28;20031;-68
2023/03/18 03:46:33;;;;;;;25.35;17.63;;;;;;;10.19;100.00;100704.78;5278352;28;20104;-68
2023/03/18 03:49:05;;;;;;;23.98;17.35;;;;;;;10.11;100.00;100698.38;5287797;28;20035;-68
2023/03/18 03:51:37;;;;;;;23.33;16.48;;;;;;;10.16;100.00;100707.72;5281010;28;20679;-68
2023/03/18 03:54:12;;;;;;;28.20;19.27;;;;;;;10.17;100.00;100704.06;5282865;28;20611;-68
2023/03/18 03:56:43;;;;;;;27.95;19.00;;;;;;;10.08;100.00;100714.59;5280177;28;20147;-68
2023/03/18 03:59:14;;;;;;;29.83;19.25;;;;;;;10.07;100.00;100719.09;5280211;28;20024;-68
2023/03/18 04:01:46;;;;;;;27.80;18.05;;;;;;;10.21;100.00;100708.19;5278323;28;20024;-68
2023/03/18 04:04:17;;;;;;;26.67;19.83;;;;;;;10.10;100.00;100712.66;5280514;28;20375;-68
2023/03/18 04:06:49;;;;;;;31.55;18.48;;;;;;;10.23;100.00;100716.06;5283456;28;20031;-68
2023/03/18 04:09:21;;;;;;;25.40;17.98;;;;;;;10.14;100.00;100719.44;5281199;28;20470;-68
2023/03/18 04:11:52;;;;;;;27.35;18.45;;;;;;;10.07;100.00;100716.41;5279626;28;20111;-68
2023/03/18 04:14:23;;;;;;;26.38;18.77;;;;;;;10.07;100.00;100719.09;5277481;28;20019;-68
2023/03/18 04:16:56;;;;;;;24.65;17.30;;;;;;;10.09;100.00;100729.63;5279162;28;20393;-68
2023/03/18 04:19:29;;;;;;;26.33;18.42;;;;;;;10.13;100.00;100720.44;5273904;28;20482;-68
2023/03/18 04:22:01;;;;;;;30.58;20.05;;;;;;;10.10;100.00;100712.66;5272857;28;20038;-68
2023/03/18 04:24:32;;;;;;;29.00;19.55;;;;;;;10.04;100.00;100719.31;5273395;28;20020;-68
2023/03/18 04:27:04;;;;;;;25.77;17.63;;;;;;;10.07;100.00;100724.41;5274680;28;20052;-68
2023/03/18 04:29:36;;;;;;;26.95;19.67;;;;;;;10.08;100.00;100725.25;5273845;28;20029;-68
2023/03/18 04:32:07;;;;;;;26.73;18.63;;;;;;;10.05;100.00;100728.16;5271117;28;20035;-68
2023/03/18 04:34:39;;;;;;;26.08;18.70;;;;;;;10.10;100.00;100724.16;5272037;28;20020;-68
2023/03/18 04:37:13;;;;;;;28.77;19.45;;;;;;;10.01;100.00;100723.06;5270557;28;20052;-68
2023/03/18 04:39:46;;;;;;;27.45;19.88;;;;;;;10.01;100.00;100725.72;5273677;28;20025;-68
2023/03/18 04:42:17;;;;;;;27.90;19.17;;;;;;;9.97;100.00;100732.25;5278916;28;20036;-68
2023/03/18 04:44:48;;;;;;;27.20;19.00;;;;;;;10.01;100.00;100731.06;5283334;28;20320;-68
2023/03/18 04:47:20;;;;;;;27.25;19.08;;;;;;;10.09;100.00;100742.97;5281823;28;20027;-68
2023/03/18 04:49:51;;;;;;;28.88;19.98;;;;;;;9.99;100.00;100741.00;5283422;28;20033;-68
2023/03/18 04:52:23;;;;;;;28.98;19.60;;;;;;;9.97;100.00;100739.38;5272617;28;20024;-68
2023/03/18 04:54:55;;;;;;;26.38;19.10;;;;;;;9.99;100.00;100737.44;5271195;28;20494;-68
2023/03/18 04:57:27;;;;;;;27.17;18.75;;;;;;;9.98;100.00;100741.94;5272653;28;20028;-68
2023/03/18 04:59:58;;;;;;;27.35;19.35;;;;;;;10.09;100.00;100753.63;5266322;28;20047;-68
2023/03/18 05:02:30;;;;;;;25.85;19.50;;;;;;;10.02;100.00;100748.75;5268477;28;20054;-69
2023/03/18 05:05:01;;;;;;;29.55;19.52;;;;;;;10.00;100.00;100747.16;5269462;28;20028;-69
2023/03/18 05:07:33;;;;;;;31.00;20.98;;;;;;;10.08;100.00;100759.91;5268974;28;20062;-68
2023/03/18 05:10:05;;;;;;;30.05;20.00;;;;;;;9.96;100.00;100757.19;5268191;28;20123;-68
2023/03/18 05:12:37;;;;;;;30.20;21.40;;;;;;;9.99;100.00;100762.31;5268639;28;20028;-68
2023/03/18 05:15:10;;;;;;;27.38;20.02;;;;;;;9.98;100.00;100765.94;5278409;28;20051;-69
2023/03/18 05:17:41;;;;;;;27.73;19.27;;;;;;;10.02;100.00;100754.06;5279386;28;20051;-68
2023/03/18 05:20:13;;;;;;;26.42;18.40;;;;;;;9.99;100.00;100761.44;5279634;28;20442;-68
2023/03/18 05:22:44;;;;;;;30.20;20.27;;;;;;;9.95;100.00;100747.53;5270445;28;20036;-68
2023/03/18 05:25:16;;;;;;;26.75;19.08;;;;;;;9.93;100.00;100751.25;5273891;28;20457;-68
2023/03/18 05:27:48;;;;;;;25.90;19.00;;;;;;;9.95;100.00;100744.84;5271152;28;20052;-67
2023/03/18 05:30:20;;;;;;;27.10;18.20;;;;;;;9.87;100.00;100738.41;5276787;28;20067;-68
2023/03/18 05:32:51;;;;;;;24.00;17.42;;;;;;;9.87;100.00;100743.72;5273895;28;20100;-68
2023/03/18 05:35:23;;;;;;;27.77;18.92;;;;;;;9.87;100.00;100747.22;5270003;28;20122;-68
2023/03/18 05:37:54;;;;;;;30.55;20.75;;;;;;;9.84;100.00;100739.47;5269152;28;20119;-68
2023/03/18 05:40:26;;;;;;;26.40;18.77;;;;;;;9.88;100.00;100737.44;5269731;28;21480;-68
2023/03/18 05:42:57;;;;;;;28.10;19.30;;;;;;;9.79;100.00;100745.13;5272251;28;20039;-68
2023/03/18 05:45:29;;;;;;;26.58;18.35;;;;;;;9.79;100.00;100744.28;5275178;28;20036;-68
2023/03/18 05:48:00;;;;;;;26.45;18.65;;;;;;;9.86;100.00;100753.53;5276593;28;20111;-68
2023/03/18 05:50:35;;;;;;;27.30;18.50;;;;;;;9.89;100.00;100765.78;5275740;28;20521;-68
2023/03/18 05:53:08;;;;;;;27.50;18.30;;;;;;;9.79;100.00;100778.94;5273478;28;20036;-68
2023/03/18 05:55:40;;;;;;;29.38;18.58;;;;;;;9.80;100.00;100768.16;5275940;28;20167;-68
2023/03/18 05:58:11;;;;;;;24.35;17.52;;;;;;;9.76;100.00;100779.16;5271636;28;20031;-68
2023/03/18 06:00:42;;;;;;;27.60;18.13;;;;;;;9.73;100.00;100787.41;5278850;28;20089;-68
2023/03/18 06:03:14;;;;;;;24.73;17.73;;;;;;;9.67;100.00;100783.38;5273324;28;20032;-68
2023/03/18 06:05:46;;;;;;;26.95;18.23;;;;;;;9.71;100.00;100787.50;5275931;28;20034;-68
2023/03/18 06:08:18;;;;;;;26.35;18.10;;;;;;;9.68;100.00;100792.19;5269737;28;20032;-68
2023/03/18 06:10:49;;;;;;;27.23;18.58;;;;;;;9.62;100.00;100788.16;5276250;28;20464;-68
2023/03/18 06:13:21;;;;;;;27.08;17.30;;;;;;;9.58;100.00;100784.88;5275295;28;20463;-68
2023/03/18 06:15:56;;;;;;;26.98;17.90;;;;;;;9.51;100.00;100788.97;5276768;28;20024;-68
2023/03/18 06:18:28;;;;;;;26.33;17.67;;;;;;;9.56;100.00;100786.81;5273303;28;22235;-68
2023/03/18 06:20:59;;;;;;;24.58;17.50;;;;;;;9.58;100.00;100792.03;5273571;28;20037;-68
2023/03/18 06:23:31;;;;;;;27.63;17.83;;;;;;;9.50;100.00;100795.25;5269606;28;20158;-68
2023/03/18 06:26:03;;;;;;;29.42;18.23;;;;;;;9.41;100.00;100785.25;5273576;28;20080;-68
2023/03/18 06:28:34;;;;;;;25.90;17.63;;;;;;;9.43;100.00;100783.34;5275383;28;20493;-68
2023/03/18 06:31:06;;;;;;;26.33;16.70;;;;;;;9.46;100.00;100788.44;5275658;28;20506;-68
2023/03/18 06:33:38;;;;;;;25.90;17.15;;;;;;;9.48;100.00;100788.34;5275819;28;20177;-68
2023/03/18 06:36:10;;;;;;;24.30;18.33;;;;;;;9.42;100.00;100793.16;5273504;28;20040;-68
2023/03/18 06:38:42;;;;;;;25.67;17.92;;;;;;;9.39;100.00;100798.69;5271390;28;20443;-68
2023/03/18 06:41:15;;;;;;;27.55;18.00;;;;;;;9.40;100.00;100805.72;5278920;28;20378;-68
2023/03/18 06:43:49;;;;;;;26.30;17.50;;;;;;;9.33;100.00;100804.47;5279572;28;20466;-68
2023/03/18 06:46:20;;;;;;;26.98;17.63;;;;;;;9.33;100.00;100808.94;5278956;28;20032;-68
2023/03/18 06:48:53;;;;;;;26.60;18.33;;;;;;;9.39;100.00;100809.34;5275919;28;20110;-68
2023/03/18 06:51:24;;;;;;;27.52;18.50;;;;;;;9.45;100.00;100807.19;5279680;28;20216;-68
2023/03/18 06:53:56;;;;;;;27.95;18.42;;;;;;;9.30;100.00;100812.69;5272954;28;20027;-68
2023/03/18 06:56:27;;;;;;;28.17;18.88;;;;;;;9.35;100.00;100820.31;5280135;28;20475;-68
2023/03/18 06:58:59;;;;;;;28.00;19.25;;;;;;;9.38;100.00;100820.97;5270324;28;20047;-68
2023/03/18 07:01:31;;;;;;;29.33;18.75;;;;;;;9.35;100.00;100812.34;5274228;28;20055;-68
2023/03/18 07:04:05;;;;;;;28.20;18.85;;;;;;;9.40;100.00;100823.53;5272905;28;20059;-68
2023/03/18 07:06:36;;;;;;;24.88;19.17;;;;;;;9.33;100.00;100828.41;5275269;28;20097;-69
2023/03/18 07:09:10;;;;;;;30.27;18.83;;;;;;;9.37;100.00;100819.25;5270630;28;20036;-69
2023/03/18 07:11:43;;;;;;;28.13;19.42;;;;;;;9.35;100.00;100826.50;5273705;28;20051;-69
2023/03/18 07:14:14;;;;;;;28.83;19.30;;;;;;;9.33;100.00;100835.56;5276311;28;20073;-68
2023/03/18 07:16:46;;;;;;;27.60;20.40;;;;;;;9.37;100.00;100840.56;5280554;28;20074;-68
2023/03/18 07:19:17;;;;;;;31.95;20.42;;;;;;;9.40;100.00;100840.34;5282241;28;20449;-68
2023/03/18 07:21:49;;;;;;;26.80;19.83;;;;;;;9.41;100.00;100850.06;5292408;28;20032;-68
2023/03/18 07:24:21;;;;;;;28.92;20.27;;;;;;;9.48;100.00;100850.44;5278242;28;20027;-68
2023/03/18 07:26:53;;;;;;;30.05;20.35;;;;;;;9.42;100.00;100850.88;5282769;28;20145;-68
2023/03/18 07:29:24;;;;;;;31.20;20.10;;;;;;;9.44;100.00;100858.78;5277368;28;20028;-69
2023/03/18 07:31:56;;;;;;;29.55;20.13;;;;;;;9.45;100.00;100852.47;5275030;28;20029;-69
2023/03/18 07:34:27;;;;;;;27.58;19.70;;;;;;;9.41;100.00;100844.72;5285271;28;20500;-69
2023/03/18 07:36:59;;;;;;;29.67;20.25;;;;;;;9.50;100.00;100856.50;5275149;28;20052;-69
2023/03/18 07:39:30;;;;;;;29.17;19.42;;;;;;;9.55;100.00;100856.16;5272067;28;20432;-68
2023/03/18 07:42:02;;;;;;;28.10;20.40;;;;;;;9.53;100.00;100864.28;5277840;28;20063;-69
2023/03/18 07:44:33;;;;;;;29.83;20.90;;;;;;;9.49;100.00;100859.28;5280540;28;20062;-69
2023/03/18 07:47:04;;;;;;;28.73;20.92;;;;;;;9.58;100.00;100870.13;5292131;28;20115;-69
2023/03/18 07:49:36;;;;;;;31.92;19.90;;;;;;;9.56;100.00;100868.53;5284165;28;20530;-69
2023/03/18 07:52:08;;;;;;;26.35;19.67;;;;;;;9.57;100.00;100873.75;5281964;28;20024;-69
2023/03/18 07:54:40;;;;;;;28.67;20.05;;;;;;;9.61;100.00;100877.91;5281624;28;20024;-68
2023/03/18 07:57:12;;;;;;;28.52;20.80;;;;;;;9.66;100.00;100874.06;5290145;28;20032;-69
2023/03/18 07:59:44;;;;;;;27.40;19.15;;;;;;;9.67;100.00;100889.09;5278568;28;21780;-68
2023/03/18 08:02:15;;;;;;;25.45;18.48;;;;;;;9.68;100.00;100870.31;5287748;28;20031;-68
2023/03/18 08:04:47;;;;;;;24.65;17.92;;;;;;;9.73;100.00;100870.84;5279578;28;20027;-68
2023/03/18 08:07:19;;;;;;;26.42;18.48;;;;;;;9.78;100.00;100867.84;5275289;28;20482;-68
2023/03/18 08:09:50;;;;;;;22.33;17.25;;;;;;;9.95;100.00;100861.25;5277305;28;20118;-69
2023/03/18 08:12:21;;;;;;;22.20;16.38;;;;;;;9.84;100.00;100856.75;5284918;28;20073;-68
2023/03/18 08:14:53;;;;;;;23.60;16.00;;;;;;;9.88;100.00;100855.53;5279761;28;20031;-69
2023/03/18 08:17:25;;;;;;;19.25;14.70;;;;;;;9.91;100.00;100857.97;5281138;28;20402;-69
2023/03/18 08:19:57;;;;;;;22.95;15.18;;;;;;;9.93;100.00;100856.06;5284630;28;20024;-68
2023/03/18 08:22:28;;;;;;;19.25;15.32;;;;;;;10.05;100.00;100859.63;5282300;28;20032;-69
2023/03/18 08:25:00;;;;;;;20.25;14.23;;;;;;;10.01;100.00;100852.84;5282289;28;20406;-69
2023/03/18 08:27:31;;;;;;;19.70;13.63;;;;;;;10.02;100.00;100852.69;5293247;28;20071;-69
2023/03/18 08:30:03;;;;;;;19.73;13.55;;;;;;;10.14;100.00;100858.09;5298183;28;20462;-68
2023/03/18 08:32:34;;;;;;;18.77;13.98;;;;;;;10.20;100.00;100860.28;5288205;28;20117;-69
2023/03/18 08:35:08;;;;;;;20.77;13.52;;;;;;;10.23;100.00;100860.06;5291234;28;20036;-68
2023/03/18 08:37:39;;;;;;;17.83;13.07;;;;;;;10.33;100.00;100862.94;5287005;28;20496;-69
2023/03/18 08:40:12;;;;;;;19.88;13.60;;;;;;;10.45;100.00;100866.47;5286601;28;20023;-69
2023/03/18 08:42:44;;;;;;;16.98;13.73;;;;;;;10.45;100.00;100875.34;5282816;28;20020;-70
2023/03/18 08:45:15;;;;;;;18.23;12.75;;;;;;;10.60;100.00;100867.97;5292331;28;20067;-69
2023/03/18 08:47:47;;;;;;;18.42;12.70;;;;;;;10.65;100.00;100873.81;5295475;28;20031;-68
2023/03/18 08:50:19;;;;;;;16.60;12.68;;;;;;;10.71;100.00;100873.34;5289562;28;21196;-69
2023/03/18 08:52:51;;;;;;;15.70;11.75;;;;;;;10.73;100.00;100876.75;5289095;28;20416;-69
2023/03/18 08:55:34;;;;;;;15.32;11.05;;;;;;;10.90;100.00;100882.63;5293609;28;20049;-68
2023/03/18 08:58:07;;;;;;;17.25;11.52;;;;;;;10.84;100.00;100872.44;5293399;28;20065;-68
2023/03/18 09:00:40;;;;;;;17.70;12.05;;;;;;;10.94;100.00;100871.56;5291303;28;20028;-69
2023/03/18 09:03:12;;;;;;;18.63;12.40;;;;;;;11.06;100.00;100877.78;5289550;28;20362;-69
2023/03/18 09:05:47;;;;;;;16.20;11.52;;;;;;;11.07;100.00;100873.31;5292595;28;20016;-69
2023/03/18 09:08:19;;;;;;;15.80;11.55;;;;;;;11.08;100.00;100872.31;5282540;28;20085;-68
2023/03/18 09:10:52;;;;;;;15.73;11.57;;;;;;;11.18;100.00;100882.16;5283179;28;20486;-69
2023/03/18 09:13:24;;;;;;;15.90;11.52;;;;;;;11.21;100.00;100886.41;5281405;28;20035;-69
2023/03/18 09:15:56;;;;;;;16.38;10.77;;;;;;;11.32;100.00;100883.75;5288144;28;20451;-68
2023/03/18 09:18:28;;;;;;;16.75;11.07;;;;;;;11.44;100.00;100884.59;5290118;28;20213;-68
2023/03/18 09:21:00;;;;;;;17.85;11.07;;;;;;;11.46;100.00;100874.63;5288933;28;20589;-69
2023/03/18 09:23:33;;;;;;;14.50;9.95;;;;;;;11.55;100.00;100879.25;5289941;28;20024;-68
2023/03/18 09:26:04;;;;;;;17.88;11.80;;;;;;;11.65;100.00;100881.19;5294063;28;20532;-69
2023/03/18 09:28:36;;;;;;;13.43;9.18;;;;;;;11.64;100.00;100887.47;5282529;28;20095;-69
2023/03/18 09:31:07;;;;;;;12.20;8.35;;;;;;;11.74;100.00;100877.78;5287731;28;20028;-70
2023/03/18 09:33:40;;;;;;;14.02;8.98;;;;;;;11.92;100.00;100881.63;5286657;28;20060;-69
2023/03/18 09:36:12;;;;;;;13.07;8.80;;;;;;;11.90;100.00;100888.94;5305888;28;20027;-69
2023/03/18 09:38:44;;;;;;;10.85;8.65;;;;;;;11.96;100.00;100883.06;5285878;28;20054;-69
2023/03/18 09:41:20;;;;;;;13.85;7.82;;;;;;;12.06;100.00;100876.97;5293387;28;20387;-71
2023/03/18 09:43:56;;;;;;;11.85;7.82;;;;;;;12.27;100.00;100872.56;5295970;28;20470;-68
2023/03/18 09:46:39;;;;;;;11.18;6.93;;;;;;;12.39;100.00;100869.81;5290965;28;20528;-69
2023/03/18 09:49:41;;;;;;;10.90;6.80;;;;;;;12.50;100.00;100870.63;5284522;28;20028;-69
2023/03/18 09:52:15;;;;;;;8.82;5.53;;;;;;;12.65;100.00;100867.59;5293830;28;20028;-69
2023/03/18 09:55:03;;;;;;;9.00;5.38;;;;;;;12.78;100.00;100875.47;5281529;28;20484;-69
2023/03/18 09:57:41;;;;;;;7.53;5.38;;;;;;;12.87;100.00;100869.31;5280710;28;20032;-69
2023/03/18 10:00:23;;;;;;;9.00;4.97;;;;;;;12.99;100.00;100865.56;5284079;28;20054;-69
2023/03/18 10:02:58;;;;;;;7.95;5.30;;;;;;;13.04;100.00;100860.66;5291172;28;20031;-69
2023/03/18 10:05:50;;;;;;;8.93;4.57;;;;;;;13.12;100.00;100871.56;5284686;28;20070;-69
2023/03/18 10:08:34;;;;;;;7.07;4.53;;;;;;;13.26;100.00;100866.84;5288498;28;20024;-69
2023/03/18 10:11:20;;;;;;;7.38;4.10;;;;;;;13.26;100.00;100880.22;5283572;28;20070;-70
2023/03/18 10:14:05;;;;;;;7.32;4.28;;;;;;;13.31;100.00;100873.53;5285382;28;20561;-70
2023/03/18 10:16:58;;;;;;;10.30;4.45;;;;;;;13.34;100.00;100878.59;5289881;28;20024;-69
2023/03/18 10:19:30;;;;;;;8.98;4.38;;;;;;;13.56;100.00;100873.16;5285527;28;20024;-69
2023/03/18 10:22:20;;;;;;;8.48;4.13;;;;;;;13.73;100.00;100868.03;5291833;28;20024;-69
2023/03/18 10:25:13;;;;;;;7.63;4.65;;;;;;;13.89;100.00;100870.16;5279210;28;20131;-70
2023/03/18 10:28:03;;;;;;;7.75;4.07;;;;;;;13.99;100.00;100880.91;5283946;28;20053;-69
2023/03/18 10:31:01;;;;;;;7.07;3.65;;;;;;;13.95;100.00;100879.50;5282009;28;20031;-70
2023/03/18 10:33:47;;;;;;;6.07;3.22;;;;;;;13.92;100.00;100872.56;5272674;28;20614;-70
2023/03/18 10:36:40;;;;;;;7.10;3.60;;;;;;;14.05;100.00;100868.78;5293903;28;20143;-70
2023/03/18 10:39:18;;;;;;;8.25;3.83;;;;;;;14.06;100.00;100875.84;5283404;28;20374;-70
2023/03/18 10:41:52;;;;;;;7.22;3.70;;;;;;;14.17;100.00;100874.84;5307903;28;20108;-70
2023/03/18 10:44:32;;;;;;;8.02;4.00;;;;;;;14.15;100.00;100869.63;5295578;28;20088;-70
2023/03/18 10:47:14;;;;;;;8.60;3.58;;;;;;;14.18;100.00;100863.16;5287302;28;20547;-70
2023/03/18 10:50:09;;;;;;;6.47;3.00;;;;;;;14.34;100.00;100862.56;5292435;28;20059;-70
2023/03/18 10:53:24;;;;;;;7.47;2.47;;;;;;;14.50;100.00;100849.44;5288730;28;20043;-70
2023/03/18 10:56:06;;;;;;;4.78;2.15;;;;;;;14.43;100.00;100851.00;5287242;28;20036;-70
2023/03/18 10:58:40;;;;;;;5.80;1.95;;;;;;;14.43;100.00;100853.69;5282364;28;20028;-70
2023/03/18 11:01:15;;;;;;;5.72;2.20;;;;;;;14.43;100.00;100856.34;5285015;28;20108;-70
2023/03/18 11:03:50;;;;;;;7.10;2.25;;;;;;;14.50;100.00;100865.53;5277639;28;20413;-70
2023/03/18 11:06:48;;;;;;;7.53;2.25;;;;;;;14.57;100.00;100857.78;5288772;28;20032;-70
2023/03/18 11:09:26;;;;;;;5.70;2.50;;;;;;;14.65;100.00;100865.97;5280303;28;20546;-70
2023/03/18 11:12:05;;;;;;;5.00;2.55;;;;;;;14.62;100.00;100872.47;5289166;28;20106;-70
2023/03/18 11:14:37;;;;;;;6.38;2.53;;;;;;;14.58;100.00;100854.97;5291356;28;20530;-71
2023/03/18 11:17:36;;;;;;;7.85;2.78;;;;;;;14.74;100.00;100854.38;5283380;28;20028;-69
2023/03/18 11:20:36;;;;;;;4.85;2.42;;;;;;;14.73;100.00;100860.75;5282281;28;20430;-70
2023/03/18 11:23:16;;;;;;;7.78;3.22;;;;;;;14.72;100.00;100858.19;5284642;28;20016;-68
2023/03/18 11:25:54;;;;;;;10.05;3.10;;;;;;;14.63;100.00;100871.50;5282359;28;20119;-69
2023/03/18 11:28:28;;;;;;;6.35;2.78;;;;;;;14.59;100.00;100880.81;5284075;28;20020;-69
2023/03/18 11:31:04;;;;;;;6.82;2.90;;;;;;;14.52;100.00;100883.19;5292054;28;20028;-69
2023/03/18 11:33:36;;;;;;;6.78;2.30;;;;;;;14.46;100.00;100883.78;5297030;28;20032;-69
2023/03/18 11:36:13;;;;;;;5.95;2.35;;;;;;;14.48;100.00;100880.94;5286972;28;20523;-69
2023/03/18 11:38:55;;;;;;;6.38;2.38;;;;;;;14.50;100.00;100887.03;5285581;28;20039;-70